METAR Data
IDs: Format: Raw Decoded Include TAF

Data at: 2203 UTC 25 Apr 2019

EBBR 252150Z 19006KT CAVOK 09/07 Q1008 NOSIG